createdAt,value
2023-01-27T00:10:19.786Z,1.95
2023-01-27T00:15:35.105Z,1.75
2023-01-27T00:20:50.869Z,1.67
2023-01-27T00:26:05.809Z,2.47
2023-01-27T00:37:25.169Z,2.00
2023-01-27T00:48:42.790Z,2.25
2023-01-27T00:53:58.135Z,2.15
2023-01-27T00:59:13.835Z,1.85
2023-01-27T01:04:28.804Z,1.83
2023-01-27T01:09:44.075Z,2.10
2023-01-27T01:15:00.125Z,2.47
2023-01-27T01:20:15.849Z,1.65
2023-01-27T01:25:30.852Z,1.80
2023-01-27T01:30:45.859Z,1.70
2023-01-27T01:36:01.174Z,2.08
2023-01-27T01:41:17.861Z,1.88
2023-01-27T01:46:33.862Z,1.90
2023-01-27T01:51:51.155Z,1.90
2023-01-27T01:57:06.892Z,1.98
2023-01-27T02:02:22.701Z,2.67
2023-01-27T02:07:39.821Z,1.85
2023-01-27T02:12:55.083Z,2.38
2023-01-27T02:18:10.826Z,2.67
2023-01-27T02:23:25.830Z,2.70
2023-01-27T02:28:41.105Z,2.75
2023-01-27T02:33:56.907Z,3.28
2023-01-27T02:39:11.592Z,2.97
2023-01-27T02:44:26.834Z,3.15
2023-01-27T02:49:41.808Z,2.78
2023-01-27T02:54:56.899Z,2.60
2023-01-27T03:00:11.813Z,2.75
2023-01-27T03:05:26.813Z,3.20
2023-01-27T03:10:41.840Z,3.17
2023-01-27T03:15:56.896Z,3.47
2023-01-27T03:21:12.841Z,3.20
2023-01-27T03:26:28.078Z,3.47
2023-01-27T03:31:44.920Z,3.20
2023-01-27T03:37:02.807Z,3.65
2023-01-27T03:42:18.171Z,3.10
2023-01-27T03:47:35.801Z,3.90
2023-01-27T03:52:50.825Z,3.72
2023-01-27T03:58:05.788Z,3.25
2023-01-27T04:03:20.790Z,2.88
2023-01-27T04:08:35.867Z,2.97
2023-01-27T04:13:51.118Z,2.67
2023-01-27T04:19:06.813Z,2.60
2023-01-27T04:24:21.805Z,2.30
2023-01-27T04:29:36.568Z,2.53
2023-01-27T04:34:51.845Z,2.95
2023-01-27T04:40:07.160Z,2.88
2023-01-27T04:45:22.799Z,2.92
2023-01-27T04:50:37.907Z,3.30
2023-01-27T04:55:53.153Z,2.90
2023-01-27T05:01:08.795Z,2.40
2023-01-27T05:06:24.069Z,2.35
2023-01-27T05:11:39.865Z,1.92
2023-01-27T05:16:54.871Z,2.35
2023-01-27T05:22:09.856Z,1.77
2023-01-27T05:27:24.932Z,2.13
2023-01-27T05:32:39.827Z,2.22
2023-01-27T05:37:54.849Z,1.90
2023-01-27T05:43:10.165Z,2.30
2023-01-27T05:48:25.848Z,2.00
2023-01-27T05:53:40.865Z,2.28
2023-01-27T05:58:55.819Z,1.58
2023-01-27T06:04:10.866Z,1.63
2023-01-27T06:09:25.878Z,1.52
2023-01-27T06:14:40.805Z,1.33
2023-01-27T06:19:55.784Z,1.80
2023-01-27T06:25:10.890Z,1.63
2023-01-27T06:30:26.131Z,1.45
2023-01-27T06:35:41.804Z,1.42
2023-01-27T06:40:56.798Z,1.15
2023-01-27T06:46:12.277Z,1.40
2023-01-27T06:51:27.814Z,1.30
2023-01-27T06:56:42.841Z,1.45
2023-01-27T07:01:57.805Z,1.30
2023-01-27T07:07:13.217Z,1.20
2023-01-27T07:12:28.868Z,1.40
2023-01-27T07:17:43.940Z,1.55
2023-01-27T07:22:58.873Z,1.15
2023-01-27T07:28:13.921Z,1.50
2023-01-27T07:33:28.586Z,1.38
2023-01-27T07:38:43.867Z,1.10
2023-01-27T07:43:59.154Z,1.30
2023-01-27T07:49:15.887Z,1.15
2023-01-27T07:54:30.845Z,1.20
2023-01-27T07:59:45.907Z,1.48
2023-01-27T08:05:00.816Z,1.27
2023-01-27T08:10:16.212Z,1.08
2023-01-27T08:15:31.632Z,1.80
2023-01-27T08:20:46.864Z,1.30
2023-01-27T08:26:01.844Z,1.13
2023-01-27T08:31:16.609Z,1.60
2023-01-27T08:36:31.814Z,1.42
2023-01-27T08:41:47.186Z,1.45
2023-01-27T08:47:02.853Z,1.20
2023-01-27T08:52:17.886Z,1.63
2023-01-27T08:57:34.243Z,1.08
2023-01-27T09:02:50.962Z,0.80
2023-01-27T09:08:05.645Z,0.90
2023-01-27T09:13:20.853Z,0.95
2023-01-27T09:18:36.853Z,1.02
2023-01-27T09:23:51.851Z,0.95
2023-01-27T09:29:06.963Z,0.93
2023-01-27T09:34:21.799Z,1.08
2023-01-27T09:39:36.866Z,0.90
2023-01-27T09:44:52.139Z,1.15
2023-01-27T09:50:07.897Z,1.05
2023-01-27T09:55:22.836Z,1.48
2023-01-27T10:00:37.857Z,1.13
2023-01-27T10:05:52.887Z,1.00
2023-01-27T10:11:07.895Z,1.13
2023-01-27T10:16:22.902Z,0.90
2023-01-27T10:21:37.836Z,1.10
2023-01-27T10:26:52.821Z,1.02
2023-01-27T10:32:07.903Z,1.08
2023-01-27T10:37:23.876Z,1.25
2023-01-27T10:42:38.843Z,0.90
2023-01-27T10:47:53.820Z,0.93
2023-01-27T10:53:08.858Z,1.10
2023-01-27T10:58:23.887Z,1.05
2023-01-27T11:03:38.827Z,1.08
2023-01-27T11:08:53.915Z,1.00
2023-01-27T11:14:08.823Z,0.80
2023-01-27T11:19:24.139Z,1.27
2023-01-27T11:24:39.868Z,1.17
2023-01-27T11:29:54.890Z,1.00
2023-01-27T11:35:09.681Z,1.00
2023-01-27T11:40:25.623Z,1.35
2023-01-27T11:45:40.836Z,1.08
2023-01-27T11:50:55.934Z,1.30
2023-01-27T11:56:10.874Z,1.30
2023-01-27T12:01:26.216Z,0.70
2023-01-27T12:06:41.804Z,0.88
2023-01-27T12:11:56.857Z,0.60
2023-01-27T12:17:11.825Z,1.02
2023-01-27T12:22:26.869Z,1.00
2023-01-27T12:27:41.854Z,0.77
2023-01-27T12:32:57.179Z,0.70
2023-01-27T12:38:12.809Z,0.60
2023-01-27T12:43:27.598Z,0.60
2023-01-27T12:48:42.890Z,0.80
2023-01-27T12:53:57.859Z,0.75
2023-01-27T12:59:13.216Z,0.55
2023-01-27T13:04:28.826Z,0.52
2023-01-27T13:09:44.175Z,0.80
2023-01-27T13:14:59.899Z,0.60
2023-01-27T13:20:15.208Z,0.90
2023-01-27T13:25:30.895Z,1.23
2023-01-27T13:30:46.154Z,0.80
2023-01-27T13:36:01.839Z,0.68
2023-01-27T13:41:16.730Z,0.60
2023-01-27T13:46:31.955Z,1.00
2023-01-27T13:51:47.238Z,1.08
2023-01-27T13:57:03.174Z,0.90
2023-01-27T14:02:18.841Z,1.35
2023-01-27T14:07:33.926Z,1.10
2023-01-27T14:13:26.867Z,1.27
2023-01-27T14:18:41.880Z,1.10
2023-01-27T14:23:56.848Z,1.10
2023-01-27T14:29:11.864Z,1.20
2023-01-27T14:34:27.193Z,1.10
2023-01-27T14:39:42.850Z,1.30
2023-01-27T14:45:04.942Z,1.20
2023-01-27T14:50:19.863Z,1.08
2023-01-27T14:55:35.118Z,1.30
2023-01-27T15:00:50.887Z,1.42
2023-01-27T15:06:06.138Z,1.40
2023-01-27T15:11:21.891Z,1.42
2023-01-27T15:16:36.965Z,1.10
2023-01-27T15:21:51.875Z,0.98
2023-01-27T15:27:07.232Z,1.17
2023-01-27T15:32:23.353Z,0.90
2023-01-27T15:37:38.855Z,0.90
2023-01-27T15:42:53.910Z,1.17
2023-01-27T15:48:08.929Z,1.38
2023-01-27T15:53:23.822Z,1.30
2023-01-27T15:58:38.938Z,1.58
2023-01-27T16:03:53.895Z,1.40
2023-01-27T16:09:08.870Z,1.63
2023-01-27T16:14:23.875Z,1.23
2023-01-27T16:19:38.761Z,1.10
2023-01-27T16:24:53.907Z,1.40
2023-01-27T16:30:08.906Z,1.15
2023-01-27T16:35:24.067Z,1.30
2023-01-27T16:40:38.627Z,1.10
2023-01-27T16:45:54.224Z,1.38
2023-01-27T16:51:09.706Z,1.35
2023-01-27T16:56:24.840Z,1.45
2023-01-27T17:01:40.215Z,1.10
2023-01-27T17:06:55.982Z,1.52
2023-01-27T17:12:10.915Z,1.63
2023-01-27T17:17:25.882Z,1.50
2023-01-27T17:22:40.942Z,1.40
2023-01-27T17:27:57.229Z,1.52
2023-01-27T17:33:12.811Z,1.30
2023-01-27T17:38:27.861Z,1.27
2023-01-27T17:43:42.884Z,1.55
2023-01-27T17:48:58.163Z,1.20
2023-01-27T17:54:13.914Z,1.50
2023-01-27T17:59:29.169Z,1.52
2023-01-27T18:04:44.877Z,1.42
2023-01-27T18:09:59.841Z,1.20
2023-01-27T18:15:15.345Z,1.23
2023-01-27T18:20:30.934Z,2.50
2023-01-27T18:25:45.900Z,3.75
2023-01-27T18:31:00.668Z,3.65
2023-01-27T18:36:15.628Z,3.70
2023-01-27T18:41:30.886Z,3.95
2023-01-27T18:46:45.665Z,3.67
2023-01-27T18:52:01.355Z,3.17
2023-01-27T18:57:16.607Z,3.97
2023-01-27T19:02:32.174Z,3.15
2023-01-27T19:07:47.952Z,3.13
2023-01-27T19:13:02.781Z,2.53
2023-01-27T19:18:18.012Z,3.00
2023-01-27T19:23:32.910Z,2.67
2023-01-27T19:28:47.905Z,2.60
2023-01-27T19:34:03.248Z,2.33
2023-01-27T19:39:18.914Z,2.00
2023-01-27T19:44:33.934Z,2.45
2023-01-27T19:49:48.672Z,2.45
2023-01-27T19:55:03.878Z,2.00
2023-01-27T20:00:18.673Z,1.88
2023-01-27T20:05:35.642Z,1.75
2023-01-27T20:10:50.666Z,2.00
2023-01-27T20:16:05.968Z,1.70
2023-01-27T20:21:20.918Z,2.03
2023-01-27T20:26:35.884Z,1.80
2023-01-27T20:31:50.881Z,1.75
2023-01-27T20:37:05.935Z,1.52
2023-01-27T20:42:20.630Z,1.95
2023-01-27T20:47:36.221Z,1.50
2023-01-27T20:52:51.628Z,1.73
2023-01-27T20:58:06.915Z,1.75
2023-01-27T21:03:21.991Z,1.70
2023-01-27T21:08:36.880Z,1.55
2023-01-27T21:13:51.914Z,1.73
2023-01-27T21:19:07.186Z,1.63
2023-01-27T21:24:23.013Z,1.50
2023-01-27T21:29:37.920Z,1.40
2023-01-27T21:34:52.900Z,1.52
2023-01-27T21:40:07.931Z,1.38
2023-01-27T21:45:22.636Z,1.83
2023-01-27T21:50:38.191Z,1.30
2023-01-27T21:55:54.230Z,1.13
2023-01-27T22:01:09.977Z,1.08
2023-01-27T22:06:24.686Z,1.73
2023-01-27T22:11:39.887Z,1.20
2023-01-27T22:16:55.134Z,1.10
2023-01-27T22:22:11.181Z,1.42
2023-01-27T22:27:26.914Z,1.20
2023-01-27T22:32:41.919Z,1.10
2023-01-27T22:37:56.981Z,1.17
2023-01-27T22:43:12.278Z,1.20
2023-01-27T22:48:27.975Z,1.55
2023-01-27T22:53:42.858Z,1.00
2023-01-27T22:58:58.225Z,1.13
2023-01-27T23:04:13.847Z,1.60
2023-01-27T23:09:28.923Z,1.55
2023-01-27T23:14:43.877Z,1.30
2023-01-27T23:19:58.957Z,1.10
2023-01-27T23:25:14.192Z,0.82
2023-01-27T23:30:29.663Z,1.25
2023-01-27T23:35:44.860Z,1.20
2023-01-27T23:40:59.927Z,1.25
2023-01-27T23:46:14.979Z,0.98
2023-01-27T23:51:29.903Z,0.77
2023-01-27T23:56:44.891Z,0.95
